This is the latest recevied weather packets stored in our database for station/object W8KVG. If no packets are shown the sender has not sent any weather packets the latest 10 day(s).
| Time | Temp. | Humidity | Pressure | Rain* | Wind** | Luminosity | Snow |
|---|---|---|---|---|---|---|---|
| 1777930580 | 23.89° C | 47% | 1006 hPa | 0 mm | - | 100 W/m² | - |
| 1777930276 | 25° C | 44% | 1005.9 hPa | 0 mm | - | 216 W/m² | - |
| 1777929973 | 24.44° C | 44% | 1005.9 hPa | 0 mm | - | 495 W/m² | - |
| 1777929670 | 23.89° C | 45% | 1005.9 hPa | 0 mm | - | 502 W/m² | - |
| 1777929367 | 23.33° C | 47% | 1006.1 hPa | 0 mm | - | 566 W/m² | - |
| 1777929063 | 22.22° C | 50% | 1006 hPa | 0 mm | - | 81 W/m² | - |
| 1777928761 | 22.78° C | 47% | 1006.1 hPa | 0 mm | - | 95 W/m² | - |
| 1777928457 | 22.78° C | 47% | 1005.9 hPa | 0 mm | - | 194 W/m² | - |
| 1777928155 | 23.33° C | 45% | 1006 hPa | 0 mm | - | 89 W/m² | - |
| 1777927853 | 23.33° C | 46% | 1006 hPa | 0 mm | - | 159 W/m² | - |
| 1777927550 | 24.44° C | 43% | 1006 hPa | 0 mm | - | 180 W/m² | - |
| 1777927250 | 23.89° C | 45% | 1005.8 hPa | 0 mm | - | 409 W/m² | - |
| 1777926947 | 23.33° C | 45% | 1006 hPa | 0 mm | - | 687 W/m² | - |
| 1777926645 | 23.33° C | 46% | 1005.9 hPa | 0 mm | - | 555 W/m² | - |
| 1777926339 | 23.89° C | 44% | 1005.7 hPa | 0 mm | - | 694 W/m² | - |
| 1777926037 | 23.89° C | 45% | 1006.1 hPa | 0 mm | - | 741 W/m² | - |
| 1777925734 | 24.44° C | 44% | 1005.9 hPa | 0 mm | - | 746 W/m² | - |
| 1777925432 | 23.33° C | 47% | 1006.1 hPa | 0 mm | - | 776 W/m² | - |
| 1777925128 | 22.78° C | 48% | 1006.2 hPa | 0 mm | - | 833 W/m² | - |
| 1777924825 | 23.33° C | 48% | 1006.4 hPa | 0 mm | - | 187 W/m² | - |
| 1777924521 | 24.44° C | 46% | 1006.3 hPa | 0 mm | - | 111 W/m² | - |
| 1777924218 | 23.89° C | 47% | 1006.3 hPa | 0 mm | - | 791 W/m² | - |
| 1777923914 | 22.78° C | 46% | 1006.3 hPa | 0 mm | - | 847 W/m² | - |
| 1777923609 | 23.33° C | 46% | 1006.2 hPa | 0 mm | - | 176 W/m² | - |
| 1777923307 | 23.89° C | 44% | 1006.3 hPa | 0 mm | - | 225 W/m² | - |
* Rain latest hour (hover to see other rain measurements)
** Current wind speed in m/s (hover to see current wind gust speed)